»·PEaware :: N49LP NONE-KPMD

N49LP :: NONE-KPMD

FLIGHT INFORMATION

Flight Status: Arrived
Operator: Privately registered:
United States
More flights under this callsign
Pilot: Les P. (123)
Aircraft: BEECH AIRCRAFT BONANZA
(BE35)
More flights by this aircraft type
Origin: NONE
Destination: KPMD Palmdale AF Plant 42
United States
More flights between these airports :: More routes between these airports
Route:
File this flight plan on PilotEdge
Remarks:
Altitude:
(Current/Filed)
0ft
Speed:
(Current/Filed)
0kts
Departed: 05-Jun-22 01:12 PM
Arrived: 05-Jun-22 02:07 PM
Distance/Time
Traveled:
Not Available
Distance/Time
To Go:
Arrived

Flight Plot

Page will automatically refresh every two minutes.

Flight plan parsing failed; only flown route is shown


Map Options




Map Legend


Flown Route
Filed Route
Departure Airport
Arrival Airport
Navaid (VOR, NDB)
Fix

Horizontal Profiles

Position Reports

Time Latitude Longitude Heading Altitude Ground
Speed
05-Jun-22 13:10 35.687818 -115.691836 156 10429ft 162kts
05-Jun-22 13:11 35.651702 -115.711381 228 10428ft 155kts
05-Jun-22 13:12 35.621452 -115.749367 227 10430ft 158kts
05-Jun-22 13:13 35.591120 -115.787716 227 10427ft 153kts
05-Jun-22 13:14 35.561653 -115.825171 227 10411ft 153kts
05-Jun-22 13:15 35.531898 -115.862984 227 10419ft 157kts
05-Jun-22 13:16 35.501465 -115.901618 227 10418ft 158kts
05-Jun-22 13:17 35.470871 -115.940400 227 10417ft 159kts
05-Jun-22 13:18 35.440606 -115.978707 227 10413ft 153kts
05-Jun-22 13:19 35.411567 -116.015410 227 10501ft 149kts
05-Jun-22 13:20 35.382001 -116.052786 227 10497ft 157kts
05-Jun-22 13:21 35.351512 -116.091263 227 10495ft 158kts
05-Jun-22 13:22 35.321088 -116.129610 227 10502ft 158kts
05-Jun-22 13:23 35.290592 -116.167996 227 10505ft 156kts
05-Jun-22 13:24 35.260680 -116.205597 227 10509ft 152kts
05-Jun-22 13:25 35.231095 -116.242756 227 10522ft 152kts
05-Jun-22 13:26 35.201191 -116.280295 227 10515ft 157kts
05-Jun-22 13:27 35.170860 -116.318294 227 10512ft 153kts
05-Jun-22 13:28 35.140942 -116.355753 228 10515ft 156kts
05-Jun-22 13:29 35.110432 -116.393919 228 10508ft 159kts
05-Jun-22 13:30 35.079497 -116.432554 227 10504ft 160kts
05-Jun-22 13:31 35.048952 -116.470639 227 10502ft 154kts
05-Jun-22 13:32 35.018788 -116.508242 228 10508ft 158kts
05-Jun-22 13:33 34.988049 -116.546497 228 10512ft 156kts
05-Jun-22 13:34 34.957764 -116.584251 229 10501ft 155kts
05-Jun-22 13:35 34.929280 -116.624196 231 10506ft 159kts
05-Jun-22 13:36 34.900425 -116.664560 231 10504ft 156kts
05-Jun-22 13:37 34.871608 -116.704545 231 10505ft 159kts
05-Jun-22 13:38 34.842438 -116.744954 231 10500ft 159kts
05-Jun-22 13:39 34.813576 -116.784888 231 10497ft 156kts
05-Jun-22 13:40 34.784910 -116.824531 231 10513ft 157kts
05-Jun-22 13:41 34.757316 -116.865773 253 10521ft 157kts
05-Jun-22 13:42 34.752437 -116.917686 264 10534ft 153kts
05-Jun-22 13:43 34.747110 -116.968748 264 10556ft 154kts
05-Jun-22 13:44 34.741871 -117.020416 264 10472ft 154kts
05-Jun-22 13:45 34.736643 -117.071841 264 10476ft 154kts
05-Jun-22 13:46 34.731404 -117.123261 264 10489ft 154kts
05-Jun-22 13:47 34.726107 -117.174874 265 10499ft 153kts
05-Jun-22 13:48 34.720821 -117.226340 264 10502ft 156kts
05-Jun-22 13:49 34.715405 -117.278745 265 10508ft 156kts
05-Jun-22 13:50 34.710028 -117.330538 265 10493ft 152kts
05-Jun-22 13:51 34.704711 -117.381435 265 10498ft 151kts
05-Jun-22 13:52 34.699450 -117.431678 265 10496ft 149kts
05-Jun-22 13:53 34.694366 -117.480041 265 10499ft 140kts
05-Jun-22 13:54 34.689903 -117.522162 265 10309ft 150kts
05-Jun-22 13:55 34.684413 -117.573906 265 9854ft 156kts
05-Jun-22 13:56 34.678502 -117.630097 264 8972ft 173kts
05-Jun-22 13:57 34.672339 -117.687789 264 8292ft 172kts
05-Jun-22 13:58 34.666112 -117.745700 264 7639ft 172kts
05-Jun-22 13:59 34.652082 -117.800063 251 6939ft 169kts
05-Jun-22 14:00 34.644690 -117.855516 267 6147ft 165kts
05-Jun-22 14:01 34.641591 -117.910611 267 5309ft 160kts
05-Jun-22 14:02 34.638896 -117.963221 267 4573ft 147kts
05-Jun-22 14:03 34.635605 -118.008431 266 3921ft 115kts
05-Jun-22 14:04 34.634385 -118.040225 268 3220ft 79kts
05-Jun-22 14:05 34.633090 -118.064587 267 2731ft 68kts
05-Jun-22 14:06 34.632204 -118.082858 259 2546ft 24kts
05-Jun-22 14:07 34.632497 -118.089016 355 2546ft 9kts
05-Jun-22 14:08 34.633556 -118.088965 5 2546ft 0kts
05-Jun-22 14:09 34.633558 -118.088965 5 2546ft 0kts
05-Jun-22 14:10 34.634079 -118.088138 82 2546ft 18kts
05-Jun-22 14:11 34.636104 -118.085739 278 2546ft 5kts
05-Jun-22 14:12 34.623295 -117.601941 270 2868ft 0kts
05-Jun-22 14:13 34.615421 -118.075959 14 2546ft 0kts
05-Jun-22 14:14 34.615422 -118.075959 14 2546ft 0kts
05-Jun-22 14:15 34.615422 -118.075959 14 2546ft 0kts
05-Jun-22 14:16 34.615422 -118.075959 14 2546ft 0kts

Navigation Log

Ident Type
Flight plan parsing failed, navigation log unavailable